createdAt,value
2023-01-29T00:02:11.141Z,29.63
2023-01-29T00:04:38.063Z,28.30
2023-01-29T00:07:04.948Z,26.33
2023-01-29T00:09:32.419Z,26.88
2023-01-29T00:11:59.289Z,26.48
2023-01-29T00:14:27.806Z,26.92
2023-01-29T00:16:55.124Z,24.67
2023-01-29T00:19:22.082Z,27.08
2023-01-29T00:21:48.964Z,26.85
2023-01-29T00:24:18.426Z,25.13
2023-01-29T00:26:45.903Z,22.60
2023-01-29T00:29:12.957Z,25.67
2023-01-29T00:31:39.973Z,24.02
2023-01-29T00:34:07.367Z,23.73
2023-01-29T00:36:34.255Z,24.80
2023-01-29T00:39:03.657Z,24.80
2023-01-29T00:41:50.996Z,22.90
2023-01-29T00:44:37.528Z,24.02
2023-01-29T00:47:05.077Z,20.90
2023-01-29T00:49:45.066Z,19.02
2023-01-29T00:52:27.115Z,23.73
2023-01-29T00:55:01.987Z,24.05
2023-01-29T00:57:31.677Z,22.17
2023-01-29T00:59:58.631Z,19.58
2023-01-29T01:02:44.626Z,22.80
2023-01-29T01:05:19.369Z,19.38
2023-01-29T01:07:48.679Z,22.15
2023-01-29T01:10:25.096Z,20.48
2023-01-29T01:12:54.764Z,18.73
2023-01-29T01:15:23.598Z,20.52
2023-01-29T01:18:00.987Z,18.48
2023-01-29T01:20:34.066Z,22.10
2023-01-29T01:23:01.006Z,19.95
2023-01-29T01:25:28.325Z,21.55
2023-01-29T01:27:57.170Z,19.08
2023-01-29T01:30:25.555Z,18.77
2023-01-29T01:32:53.303Z,20.92
2023-01-29T01:35:20.215Z,19.52
2023-01-29T01:37:47.169Z,19.65
2023-01-29T01:40:19.203Z,17.83
2023-01-29T01:42:57.280Z,19.67
2023-01-29T01:45:31.574Z,17.80
2023-01-29T01:48:15.632Z,16.60
2023-01-29T01:50:49.841Z,17.00
2023-01-29T01:53:22.683Z,18.67
2023-01-29T01:55:55.426Z,15.25
2023-01-29T01:58:27.319Z,16.25
2023-01-29T02:00:55.575Z,18.83
2023-01-29T02:03:43.139Z,15.98
2023-01-29T02:06:30.058Z,16.73
2023-01-29T02:09:28.704Z,19.65
2023-01-29T02:11:56.236Z,16.65
2023-01-29T02:14:23.663Z,15.68
2023-01-29T02:16:50.625Z,16.27
2023-01-29T02:19:44.236Z,15.55
2023-01-29T02:22:29.710Z,13.93
2023-01-29T02:25:10.046Z,14.27
2023-01-29T02:30:09.569Z,15.35
2023-01-29T02:32:54.880Z,15.20
2023-01-29T02:35:42.759Z,12.82
2023-01-29T02:38:42.490Z,14.25
2023-01-29T02:41:26.788Z,11.52
2023-01-29T02:44:03.788Z,15.35
2023-01-29T02:46:46.658Z,12.73
2023-01-29T02:49:27.881Z,13.43
2023-01-29T02:52:01.949Z,12.38
2023-01-29T02:54:42.862Z,11.82
2023-01-29T02:57:24.658Z,12.10
2023-01-29T02:59:59.871Z,12.48
2023-01-29T03:02:43.070Z,13.23
2023-01-29T03:05:17.685Z,11.73
2023-01-29T03:07:54.133Z,12.57
2023-01-29T03:10:47.876Z,13.25
2023-01-29T03:13:56.898Z,11.80
2023-01-29T03:16:31.319Z,12.95
2023-01-29T03:19:17.455Z,13.55
2023-01-29T03:21:59.785Z,14.32
2023-01-29T03:25:05.315Z,11.73
2023-01-29T03:27:57.328Z,11.52
2023-01-29T03:30:47.397Z,13.10
2023-01-29T03:33:58.481Z,14.82
2023-01-29T03:36:39.976Z,13.20
2023-01-29T03:39:09.658Z,12.75
2023-01-29T03:41:43.076Z,15.45
2023-01-29T03:44:20.520Z,12.43
2023-01-29T03:46:56.731Z,13.15
2023-01-29T03:49:39.297Z,12.15
2023-01-29T03:52:10.559Z,13.68
2023-01-29T03:54:49.549Z,12.65
2023-01-29T03:57:36.524Z,13.32
2023-01-29T04:00:17.309Z,12.27
2023-01-29T04:03:23.305Z,12.65
2023-01-29T04:06:13.087Z,10.80
2023-01-29T04:09:22.238Z,12.10
2023-01-29T04:11:55.807Z,12.35
2023-01-29T04:14:23.696Z,12.18
2023-01-29T04:16:57.722Z,13.93
2023-01-29T04:19:36.588Z,11.82
2023-01-29T04:22:19.943Z,12.02
2023-01-29T04:24:48.332Z,11.23
2023-01-29T04:27:15.324Z,10.95
2023-01-29T04:29:51.102Z,10.65
2023-01-29T04:32:32.291Z,9.82
2023-01-29T04:35:05.112Z,10.65
2023-01-29T04:37:50.678Z,11.50
2023-01-29T04:40:27.255Z,10.00
2023-01-29T04:43:05.386Z,10.25
2023-01-29T04:45:50.653Z,12.77
2023-01-29T04:48:43.401Z,11.02
2023-01-29T04:51:20.077Z,11.00
2023-01-29T04:54:02.781Z,10.23
2023-01-29T04:57:08.620Z,10.70
2023-01-29T05:00:18.411Z,11.82
2023-01-29T05:02:46.478Z,12.13
2023-01-29T05:05:16.736Z,9.68
2023-01-29T05:07:44.357Z,9.85
2023-01-29T05:10:13.651Z,11.15
2023-01-29T05:12:43.938Z,10.40
2023-01-29T05:15:16.357Z,9.80
2023-01-29T05:17:43.452Z,9.95
2023-01-29T05:20:12.014Z,10.43
2023-01-29T05:22:41.747Z,11.73
2023-01-29T05:25:31.206Z,11.18
2023-01-29T05:28:16.704Z,10.32
2023-01-29T05:30:51.539Z,11.73
2023-01-29T05:33:29.927Z,10.95
2023-01-29T05:35:59.610Z,13.77
2023-01-29T05:38:26.525Z,12.02
2023-01-29T05:40:54.496Z,12.57
2023-01-29T05:43:24.222Z,11.63
2023-01-29T05:45:59.079Z,10.82
2023-01-29T05:48:28.983Z,10.80
2023-01-29T05:51:05.500Z,10.43
2023-01-29T05:53:33.509Z,10.88
2023-01-29T05:56:04.965Z,12.35
2023-01-29T05:58:36.557Z,10.00
2023-01-29T06:01:14.700Z,10.55
2023-01-29T06:03:41.735Z,12.98
2023-01-29T06:06:11.703Z,9.38
2023-01-29T06:08:39.217Z,11.55
2023-01-29T06:11:08.489Z,10.73
2023-01-29T06:13:36.089Z,11.18
2023-01-29T06:16:12.977Z,10.30
2023-01-29T06:18:41.127Z,11.98
2023-01-29T06:21:11.309Z,10.80
2023-01-29T06:23:38.879Z,10.93
2023-01-29T06:26:08.671Z,12.77
2023-01-29T06:29:03.356Z,10.38
2023-01-29T06:31:39.459Z,11.25
2023-01-29T06:34:09.480Z,12.38
2023-01-29T06:36:39.851Z,11.15
2023-01-29T06:39:06.913Z,10.63
2023-01-29T06:41:34.662Z,10.68
2023-01-29T06:44:01.648Z,10.27
2023-01-29T06:46:41.423Z,10.60
2023-01-29T06:49:08.968Z,11.25
2023-01-29T06:51:35.995Z,10.45
2023-01-29T06:54:03.929Z,10.65
2023-01-29T06:56:30.786Z,12.15
2023-01-29T06:58:57.808Z,11.60
2023-01-29T07:01:35.744Z,12.82
2023-01-29T07:04:03.513Z,15.23
2023-01-29T07:06:31.539Z,12.48
2023-01-29T07:08:58.661Z,11.88
2023-01-29T07:11:25.808Z,10.95
2023-01-29T07:13:52.754Z,10.57
2023-01-29T07:16:19.686Z,11.10
2023-01-29T07:18:46.675Z,11.27
2023-01-29T07:21:15.890Z,10.50
2023-01-29T07:23:42.833Z,10.40
2023-01-29T07:26:11.267Z,10.82
2023-01-29T07:28:39.705Z,12.00
2023-01-29T07:31:07.667Z,10.30
2023-01-29T07:33:35.001Z,10.73
2023-01-29T07:36:02.075Z,10.85
2023-01-29T07:38:28.990Z,10.20
2023-01-29T07:40:55.819Z,11.15
2023-01-29T07:43:29.004Z,11.75
2023-01-29T07:45:55.985Z,11.70
2023-01-29T07:48:23.824Z,11.50
2023-01-29T07:50:57.519Z,10.70
2023-01-29T07:53:24.541Z,10.82
2023-01-29T07:55:51.567Z,10.35
2023-01-29T07:58:18.616Z,10.55
2023-01-29T08:00:46.181Z,12.77
2023-01-29T08:03:16.395Z,11.25
2023-01-29T08:05:44.255Z,11.38
2023-01-29T08:08:11.738Z,11.18
2023-01-29T08:10:41.955Z,10.48
2023-01-29T08:13:09.278Z,10.23
2023-01-29T08:15:38.763Z,12.00
2023-01-29T08:18:06.783Z,10.32
2023-01-29T08:20:33.914Z,10.75
2023-01-29T08:23:12.590Z,10.10
2023-01-29T08:25:39.729Z,11.35
2023-01-29T08:28:06.807Z,10.23
2023-01-29T08:30:35.113Z,10.55
2023-01-29T08:33:04.496Z,10.85
2023-01-29T08:35:31.939Z,10.63
2023-01-29T08:38:01.114Z,10.18
2023-01-29T08:40:31.907Z,10.27
2023-01-29T08:43:04.086Z,10.57
2023-01-29T08:45:35.143Z,10.60
2023-01-29T08:48:02.826Z,10.32
2023-01-29T08:50:34.661Z,10.30
2023-01-29T08:53:04.210Z,10.10
2023-01-29T08:55:31.192Z,9.73
2023-01-29T08:57:58.077Z,12.13
2023-01-29T09:00:25.166Z,11.93
2023-01-29T09:02:52.067Z,10.63
2023-01-29T09:05:19.346Z,11.68
2023-01-29T09:07:46.637Z,12.98
2023-01-29T09:10:13.665Z,12.40
2023-01-29T09:12:40.503Z,12.43
2023-01-29T09:15:07.947Z,12.02
2023-01-29T09:17:37.838Z,12.43
2023-01-29T09:22:36.324Z,10.98
2023-01-29T09:25:04.155Z,13.10
2023-01-29T09:27:31.071Z,11.13
2023-01-29T09:29:57.937Z,10.55
2023-01-29T09:32:52.164Z,10.63
2023-01-29T09:35:11.807Z,11.18
2023-01-29T09:37:38.611Z,10.10
2023-01-29T09:40:06.085Z,10.23
2023-01-29T09:42:44.104Z,10.68
2023-01-29T09:45:26.853Z,10.77
2023-01-29T09:47:58.187Z,11.35
2023-01-29T09:50:35.409Z,10.00
2023-01-29T09:53:17.884Z,10.63
2023-01-29T09:55:58.682Z,12.10
2023-01-29T09:58:33.977Z,13.32
2023-01-29T10:01:15.435Z,11.65
2023-01-29T10:03:58.708Z,12.23
2023-01-29T10:06:31.313Z,14.57
2023-01-29T10:09:19.477Z,14.25
2023-01-29T10:12:20.660Z,11.85
2023-01-29T10:15:15.486Z,10.77
2023-01-29T10:17:42.842Z,12.32
2023-01-29T10:20:28.008Z,13.05
2023-01-29T10:23:02.787Z,13.30
2023-01-29T10:25:33.557Z,13.38
2023-01-29T10:28:02.583Z,11.88
2023-01-29T10:30:34.760Z,12.93
2023-01-29T10:33:07.383Z,12.93
2023-01-29T10:35:44.613Z,12.45
2023-01-29T10:38:38.726Z,12.27
2023-01-29T10:41:27.374Z,16.10
2023-01-29T10:44:03.813Z,12.82
2023-01-29T10:46:37.383Z,15.45
2023-01-29T10:49:29.954Z,16.65
2023-01-29T10:52:11.418Z,15.10
2023-01-29T10:54:55.548Z,17.48
2023-01-29T10:57:40.862Z,15.43
2023-01-29T11:00:22.280Z,16.45
2023-01-29T11:02:51.416Z,15.18
2023-01-29T11:05:34.198Z,14.57
2023-01-29T11:08:10.659Z,14.15
2023-01-29T11:10:46.666Z,14.95
2023-01-29T11:13:16.501Z,15.10
2023-01-29T11:15:46.574Z,12.63
2023-01-29T11:18:15.849Z,15.45
2023-01-29T11:20:45.731Z,13.27
2023-01-29T11:23:33.292Z,12.52
2023-01-29T11:26:01.335Z,14.10
2023-01-29T11:28:44.747Z,15.48
2023-01-29T11:31:30.260Z,15.55
2023-01-29T11:34:06.965Z,13.82
2023-01-29T11:36:38.908Z,13.50
2023-01-29T11:39:08.798Z,14.40
2023-01-29T11:41:44.152Z,15.60
2023-01-29T11:44:34.638Z,14.90
2023-01-29T11:47:20.220Z,12.93
2023-01-29T11:49:53.888Z,14.27
2023-01-29T11:52:26.405Z,14.05
2023-01-29T11:55:01.150Z,15.13
2023-01-29T11:57:57.353Z,14.13
2023-01-29T12:00:25.528Z,13.68
2023-01-29T12:03:02.171Z,15.38
2023-01-29T12:05:29.338Z,12.38
2023-01-29T12:08:02.239Z,14.07
2023-01-29T12:10:39.776Z,12.73
2023-01-29T12:13:09.706Z,12.77
2023-01-29T12:15:41.883Z,13.25
2023-01-29T12:18:33.596Z,13.18
2023-01-29T12:21:03.712Z,12.63
2023-01-29T12:23:48.720Z,13.00
2023-01-29T12:26:36.643Z,13.23
2023-01-29T12:29:12.261Z,19.80
2023-01-29T12:32:09.680Z,13.43
2023-01-29T12:34:45.217Z,16.05
2023-01-29T12:37:21.467Z,15.23
2023-01-29T12:39:49.960Z,15.60
2023-01-29T12:42:25.783Z,13.02
2023-01-29T12:44:52.645Z,14.43
2023-01-29T12:47:28.122Z,15.65
2023-01-29T12:50:00.788Z,18.02
2023-01-29T12:52:59.866Z,15.52
2023-01-29T12:55:53.959Z,16.45
2023-01-29T12:58:31.591Z,14.63
2023-01-29T13:01:11.774Z,17.30
2023-01-29T13:03:50.930Z,16.83
2023-01-29T13:06:29.424Z,18.73
2023-01-29T13:09:03.895Z,16.60
2023-01-29T13:11:46.909Z,17.20
2023-01-29T13:14:22.238Z,15.95
2023-01-29T13:16:54.195Z,17.00
2023-01-29T13:19:27.712Z,14.63
2023-01-29T13:21:57.721Z,15.15
2023-01-29T13:24:27.657Z,14.40
2023-01-29T13:26:54.660Z,13.48
2023-01-29T13:29:25.308Z,14.40
2023-01-29T13:31:57.225Z,16.02
2023-01-29T13:34:36.838Z,15.73
2023-01-29T13:37:11.512Z,12.48
2023-01-29T13:39:46.380Z,13.90
2023-01-29T13:42:24.525Z,13.10
2023-01-29T13:44:57.759Z,13.35
2023-01-29T13:47:31.359Z,13.05
2023-01-29T13:50:04.089Z,12.80
2023-01-29T13:52:44.875Z,13.63
2023-01-29T13:55:14.597Z,16.98
2023-01-29T13:57:44.855Z,15.75
2023-01-29T14:03:01.932Z,14.93
2023-01-29T14:05:31.531Z,14.93
2023-01-29T14:08:02.045Z,15.98
2023-01-29T14:10:31.196Z,14.23
2023-01-29T14:13:03.889Z,13.45
2023-01-29T14:15:36.480Z,13.32
2023-01-29T14:18:06.517Z,12.20
2023-01-29T14:20:45.507Z,13.60
2023-01-29T14:23:44.295Z,14.25
2023-01-29T14:26:38.407Z,13.80
2023-01-29T14:29:25.440Z,13.43
2023-01-29T14:32:00.889Z,14.38
2023-01-29T14:34:31.952Z,17.02
2023-01-29T14:37:04.099Z,16.90
2023-01-29T14:39:43.586Z,13.93
2023-01-29T14:42:19.587Z,13.82
2023-01-29T14:44:46.945Z,16.88
2023-01-29T14:47:20.898Z,16.30
2023-01-29T14:49:57.716Z,17.02
2023-01-29T14:52:40.521Z,16.55
2023-01-29T14:55:15.924Z,21.15
2023-01-29T14:57:43.337Z,15.25
2023-01-29T15:00:27.150Z,19.65
2023-01-29T15:03:02.049Z,14.40
2023-01-29T15:05:36.173Z,16.77
2023-01-29T15:08:30.357Z,14.30
2023-01-29T15:11:19.308Z,18.33
2023-01-29T15:14:24.056Z,18.42
2023-01-29T15:16:54.040Z,15.82
2023-01-29T15:19:32.324Z,17.95
2023-01-29T15:22:03.032Z,18.33
2023-01-29T15:24:29.973Z,18.15
2023-01-29T15:26:57.203Z,28.85
2023-01-29T15:29:27.584Z,16.55
2023-01-29T15:31:58.711Z,18.90
2023-01-29T15:34:26.123Z,18.60
2023-01-29T15:36:53.190Z,16.63
2023-01-29T15:39:25.166Z,17.33
2023-01-29T15:42:10.863Z,16.35
2023-01-29T15:44:45.323Z,16.83
2023-01-29T15:47:13.540Z,19.00
2023-01-29T15:49:41.277Z,15.90
2023-01-29T15:52:16.241Z,17.08
2023-01-29T15:54:44.290Z,14.23
2023-01-29T15:57:21.987Z,15.82
2023-01-29T15:59:51.955Z,15.02
2023-01-29T16:02:38.739Z,15.57
2023-01-29T16:05:16.237Z,23.65
2023-01-29T16:07:44.659Z,19.48
2023-01-29T16:10:27.458Z,18.95
2023-01-29T16:12:55.477Z,16.45
2023-01-29T16:15:35.011Z,18.33
2023-01-29T16:18:17.026Z,19.40
2023-01-29T16:20:50.455Z,22.40
2023-01-29T16:23:30.815Z,19.92
2023-01-29T16:28:30.583Z,18.35
2023-01-29T16:31:01.915Z,19.55
2023-01-29T16:33:36.488Z,19.35
2023-01-29T16:36:11.748Z,17.38
2023-01-29T16:38:43.334Z,16.15
2023-01-29T16:41:22.218Z,17.13
2023-01-29T16:43:50.542Z,15.90
2023-01-29T16:46:20.648Z,21.33
2023-01-29T16:48:47.981Z,15.73
2023-01-29T16:51:22.230Z,17.42
2023-01-29T16:54:00.923Z,15.00
2023-01-29T16:56:31.398Z,17.95
2023-01-29T16:58:58.980Z,17.67
2023-01-29T17:01:29.014Z,18.83
2023-01-29T17:04:17.421Z,16.67
2023-01-29T17:06:54.448Z,16.10
2023-01-29T17:09:41.168Z,19.38
2023-01-29T17:12:15.431Z,19.20
2023-01-29T17:14:56.849Z,18.02
2023-01-29T17:17:30.551Z,18.15
2023-01-29T17:19:59.561Z,18.17
2023-01-29T17:22:26.424Z,16.95
2023-01-29T17:24:53.329Z,16.40
2023-01-29T17:27:22.733Z,17.25
2023-01-29T17:29:51.136Z,16.80
2023-01-29T17:32:19.039Z,14.30
2023-01-29T17:34:47.159Z,15.13
2023-01-29T17:37:15.633Z,15.35
2023-01-29T17:39:44.123Z,15.95
2023-01-29T17:42:14.667Z,13.57
2023-01-29T17:44:43.109Z,16.85
2023-01-29T17:47:15.275Z,14.15
2023-01-29T17:49:43.321Z,15.27
2023-01-29T17:52:10.327Z,15.52
2023-01-29T17:54:37.359Z,16.80
2023-01-29T17:57:04.503Z,13.63
2023-01-29T17:59:33.750Z,14.98
2023-01-29T18:02:00.922Z,15.98
2023-01-29T18:04:28.190Z,15.07
2023-01-29T18:06:57.121Z,17.08
2023-01-29T18:09:24.814Z,15.70
2023-01-29T18:11:51.971Z,18.23
2023-01-29T18:14:18.906Z,17.63
2023-01-29T18:16:46.583Z,15.38
2023-01-29T18:19:22.326Z,14.85
2023-01-29T18:21:50.434Z,13.85
2023-01-29T18:24:17.293Z,16.65
2023-01-29T18:26:44.237Z,17.20
2023-01-29T18:29:11.253Z,16.85
2023-01-29T18:31:38.230Z,18.95
2023-01-29T18:34:05.439Z,20.08
2023-01-29T18:36:32.440Z,20.50
2023-01-29T18:38:59.373Z,19.90
2023-01-29T18:41:26.453Z,17.88
2023-01-29T18:43:53.501Z,17.20
2023-01-29T18:46:22.875Z,20.83
2023-01-29T18:48:51.137Z,20.13
2023-01-29T18:51:20.757Z,19.45
2023-01-29T18:53:53.283Z,17.85
2023-01-29T18:56:20.617Z,14.73
2023-01-29T18:58:57.925Z,15.05
2023-01-29T19:01:32.942Z,16.23
2023-01-29T19:04:01.278Z,14.68
2023-01-29T19:06:28.395Z,13.88
2023-01-29T19:08:55.348Z,15.77
2023-01-29T19:11:22.326Z,14.30
2023-01-29T19:13:52.860Z,13.15
2023-01-29T19:16:19.806Z,13.45
2023-01-29T19:18:46.681Z,13.18
2023-01-29T19:21:16.108Z,14.73
2023-01-29T19:23:45.010Z,21.57
2023-01-29T19:26:12.229Z,19.00
2023-01-29T19:28:39.688Z,19.83
2023-01-29T19:31:06.892Z,23.40
2023-01-29T19:33:33.907Z,21.90
2023-01-29T19:36:01.043Z,20.83
2023-01-29T19:38:28.675Z,20.40
2023-01-29T19:40:55.645Z,20.20
2023-01-29T19:43:22.838Z,21.20
2023-01-29T19:45:51.180Z,24.63
2023-01-29T19:48:22.162Z,19.48
2023-01-29T19:51:13.732Z,17.48
2023-01-29T19:53:46.126Z,16.67
2023-01-29T19:56:16.215Z,18.27
2023-01-29T19:58:43.676Z,17.38
2023-01-29T20:01:21.807Z,20.42
2023-01-29T20:03:49.846Z,18.05
2023-01-29T20:06:19.393Z,17.30
2023-01-29T20:08:46.923Z,20.35
2023-01-29T20:11:15.102Z,19.85
2023-01-29T20:13:43.468Z,19.85
2023-01-29T20:16:10.754Z,18.38
2023-01-29T20:18:38.093Z,16.75
2023-01-29T20:21:11.781Z,19.45
2023-01-29T20:23:40.125Z,18.70
2023-01-29T20:26:14.287Z,17.08
2023-01-29T20:28:42.273Z,20.95
2023-01-29T20:31:10.029Z,18.83
2023-01-29T20:33:40.589Z,18.08
2023-01-29T20:36:10.205Z,16.83
2023-01-29T20:38:37.469Z,16.58
2023-01-29T20:41:10.671Z,16.95
2023-01-29T20:43:37.956Z,16.17
2023-01-29T20:46:05.657Z,16.48
2023-01-29T20:48:33.425Z,18.15
2023-01-29T20:51:16.055Z,21.20
2023-01-29T20:53:46.262Z,21.23
2023-01-29T20:56:15.511Z,19.73
2023-01-29T20:58:44.332Z,18.17
2023-01-29T21:01:13.561Z,16.90
2023-01-29T21:03:40.630Z,22.75
2023-01-29T21:06:09.414Z,16.88
2023-01-29T21:08:37.595Z,17.80
2023-01-29T21:11:06.229Z,21.77
2023-01-29T21:13:33.575Z,22.08
2023-01-29T21:16:00.757Z,18.38
2023-01-29T21:18:27.704Z,16.67
2023-01-29T21:20:55.176Z,18.65
2023-01-29T21:23:22.659Z,20.40
2023-01-29T21:25:49.525Z,17.60
2023-01-29T21:28:16.917Z,16.35
2023-01-29T21:30:43.966Z,18.17
2023-01-29T21:33:10.865Z,16.77
2023-01-29T21:35:38.616Z,18.35
2023-01-29T21:38:05.569Z,27.30
2023-01-29T21:40:32.396Z,28.80
2023-01-29T21:43:15.638Z,31.38
2023-01-29T21:45:43.549Z,39.15
2023-01-29T21:48:11.616Z,46.60
2023-01-29T21:50:39.048Z,40.33
2023-01-29T21:53:05.954Z,24.45
2023-01-29T21:55:33.081Z,21.25
2023-01-29T21:58:00.588Z,23.02
2023-01-29T22:00:28.121Z,23.35
2023-01-29T22:02:55.834Z,28.40
2023-01-29T22:05:22.993Z,27.23
2023-01-29T22:07:50.325Z,27.80
2023-01-29T22:10:19.021Z,25.30
2023-01-29T22:12:46.946Z,25.42
2023-01-29T22:15:15.221Z,33.60
2023-01-29T22:17:42.870Z,38.92
2023-01-29T22:20:12.081Z,51.47
2023-01-29T22:22:39.139Z,42.90
2023-01-29T22:25:06.599Z,38.45
2023-01-29T22:27:34.096Z,36.03
2023-01-29T22:30:00.997Z,36.25
2023-01-29T22:32:28.111Z,35.28
2023-01-29T22:34:54.949Z,34.60
2023-01-29T22:37:22.027Z,33.65
2023-01-29T22:39:48.987Z,36.30
2023-01-29T22:42:18.399Z,36.35
2023-01-29T22:44:48.562Z,35.77
2023-01-29T22:47:16.176Z,36.78
2023-01-29T22:49:45.721Z,42.65
2023-01-29T22:52:12.811Z,40.05
2023-01-29T22:54:41.367Z,42.60
2023-01-29T22:57:11.171Z,35.80
2023-01-29T22:59:42.375Z,37.08
2023-01-29T23:02:11.599Z,34.28
2023-01-29T23:04:38.630Z,32.70
2023-01-29T23:07:09.133Z,36.65
2023-01-29T23:09:36.230Z,28.63
2023-01-29T23:12:03.137Z,28.10
2023-01-29T23:14:30.122Z,29.17
2023-01-29T23:16:57.067Z,26.08
2023-01-29T23:19:24.172Z,25.85
2023-01-29T23:21:51.206Z,27.05
2023-01-29T23:24:18.120Z,25.80
2023-01-29T23:27:03.826Z,26.17
2023-01-29T23:29:30.753Z,26.98
2023-01-29T23:31:57.575Z,33.55
2023-01-29T23:34:24.579Z,29.40
2023-01-29T23:36:51.468Z,26.20
2023-01-29T23:39:18.459Z,26.98
2023-01-29T23:41:45.312Z,21.42
2023-01-29T23:44:12.722Z,23.27
2023-01-29T23:46:40.084Z,24.77
2023-01-29T23:49:07.370Z,28.42
2023-01-29T23:51:34.612Z,24.35
2023-01-29T23:54:01.510Z,25.73
2023-01-29T23:56:29.520Z,24.45
2023-01-29T23:58:57.757Z,23.73
